createdAt,value
2023-05-05T00:01:41.293Z,3.95
2023-05-05T00:04:08.388Z,3.97
2023-05-05T00:06:35.940Z,4.05
2023-05-05T00:09:03.037Z,3.88
2023-05-05T00:11:30.159Z,3.90
2023-05-05T00:13:57.062Z,3.58
2023-05-05T00:16:29.537Z,3.78
2023-05-05T00:18:57.180Z,3.58
2023-05-05T00:21:30.082Z,3.45
2023-05-05T00:23:57.440Z,3.65
2023-05-05T00:26:24.474Z,3.25
2023-05-05T00:28:52.661Z,3.15
2023-05-05T00:31:19.647Z,4.95
2023-05-05T00:33:46.895Z,3.47
2023-05-05T00:36:14.973Z,3.92
2023-05-05T00:38:42.742Z,4.63
2023-05-05T00:41:09.978Z,4.55
2023-05-05T00:43:36.955Z,3.80
2023-05-05T00:46:24.078Z,3.95
2023-05-05T00:48:52.146Z,3.67
2023-05-05T00:51:20.789Z,3.72
2023-05-05T00:53:48.813Z,4.00
2023-05-05T00:56:17.502Z,3.95
2023-05-05T00:58:45.013Z,4.05
2023-05-05T01:01:12.601Z,3.97
2023-05-05T01:03:42.705Z,3.80
2023-05-05T01:06:40.157Z,4.90
2023-05-05T01:09:19.583Z,4.30
2023-05-05T01:12:09.285Z,4.68
2023-05-05T01:14:43.420Z,4.88
2023-05-05T01:17:21.507Z,4.38
2023-05-05T01:20:15.703Z,4.38
2023-05-05T01:22:51.480Z,4.35
2023-05-05T01:25:53.350Z,4.63
2023-05-05T01:28:32.612Z,4.57
2023-05-05T01:31:32.076Z,4.72
2023-05-05T01:34:03.947Z,4.85
2023-05-05T01:36:44.606Z,5.03
2023-05-05T01:39:17.107Z,5.88
2023-05-05T01:41:48.321Z,5.07
2023-05-05T01:44:18.370Z,5.10
2023-05-05T01:46:49.134Z,5.28
2023-05-05T01:49:16.834Z,4.90
2023-05-05T01:51:46.384Z,4.55
2023-05-05T01:54:15.344Z,4.85
2023-05-05T01:56:43.847Z,4.78
2023-05-05T01:59:11.791Z,5.15
2023-05-05T02:01:44.886Z,4.68
2023-05-05T02:04:14.573Z,5.45
2023-05-05T02:06:43.471Z,5.90
2023-05-05T02:09:13.614Z,6.03
2023-05-05T02:11:41.095Z,5.25
2023-05-05T02:14:09.414Z,5.60
2023-05-05T02:16:38.224Z,5.72
2023-05-05T02:19:06.255Z,4.93
2023-05-05T02:21:34.400Z,4.70
2023-05-05T02:24:01.901Z,99.53
2023-05-05T02:26:33.942Z,70.88
2023-05-05T02:29:16.587Z,29.20
2023-05-05T02:31:47.631Z,21.45
2023-05-05T02:34:27.947Z,25.20
2023-05-05T02:37:00.268Z,32.05
2023-05-05T02:39:41.892Z,19.13
2023-05-05T02:42:18.438Z,17.50
2023-05-05T02:44:46.605Z,13.65
2023-05-05T02:47:14.702Z,15.88
2023-05-05T02:49:43.167Z,18.08
2023-05-05T02:52:10.263Z,15.25
2023-05-05T02:54:39.434Z,9.25
2023-05-05T02:57:18.845Z,10.50
2023-05-05T03:00:09.688Z,7.57
2023-05-05T03:02:55.420Z,5.47
2023-05-05T03:05:31.362Z,4.75
2023-05-05T03:08:09.821Z,3.85
2023-05-05T03:10:47.548Z,4.03
2023-05-05T03:13:18.135Z,4.40
2023-05-05T03:15:52.706Z,3.80
2023-05-05T03:18:25.446Z,4.13
2023-05-05T03:20:59.425Z,4.55
2023-05-05T03:23:26.666Z,5.13
2023-05-05T03:25:58.997Z,5.15
2023-05-05T03:28:39.863Z,5.00
2023-05-05T03:31:18.605Z,4.82
2023-05-05T03:33:50.314Z,5.63
2023-05-05T03:36:19.481Z,5.15
2023-05-05T03:38:46.562Z,5.97
2023-05-05T03:41:13.614Z,4.93
2023-05-05T03:43:41.644Z,4.72
2023-05-05T03:46:10.751Z,5.20
2023-05-05T03:48:38.053Z,4.47
2023-05-05T03:51:05.101Z,4.32
2023-05-05T03:53:34.405Z,4.55
2023-05-05T03:56:05.401Z,4.70
2023-05-05T03:58:32.438Z,4.68
2023-05-05T04:00:59.504Z,4.40
2023-05-05T04:03:26.644Z,4.53
2023-05-05T04:05:53.812Z,4.18
2023-05-05T04:08:21.907Z,4.80
2023-05-05T04:10:48.923Z,4.05
2023-05-05T04:13:16.069Z,4.45
2023-05-05T04:15:47.086Z,4.20
2023-05-05T04:18:15.233Z,4.57
2023-05-05T04:20:43.000Z,4.03
2023-05-05T04:23:11.231Z,4.18
2023-05-05T04:25:38.959Z,4.00
2023-05-05T04:28:06.418Z,4.78
2023-05-05T04:30:33.612Z,5.40
2023-05-05T04:33:01.004Z,5.30
2023-05-05T04:35:28.239Z,4.97
2023-05-05T04:37:55.280Z,5.57
2023-05-05T04:40:22.845Z,5.28
2023-05-05T04:42:49.844Z,5.20
2023-05-05T04:45:17.147Z,4.78
2023-05-05T04:47:44.384Z,5.30
2023-05-05T04:50:11.989Z,5.13
2023-05-05T04:52:39.535Z,5.00
2023-05-05T04:55:07.017Z,5.00
2023-05-05T04:57:34.237Z,4.95
2023-05-05T05:00:01.814Z,5.30
2023-05-05T05:02:28.908Z,5.03
2023-05-05T05:04:55.887Z,5.45
2023-05-05T05:07:22.851Z,5.40
2023-05-05T05:09:50.909Z,4.90
2023-05-05T05:12:17.855Z,5.18
2023-05-05T05:14:44.939Z,5.35
2023-05-05T05:17:12.059Z,5.47
2023-05-05T05:19:39.330Z,5.13
2023-05-05T05:22:06.740Z,5.50
2023-05-05T05:24:37.499Z,5.80
2023-05-05T05:27:09.785Z,5.45
2023-05-05T05:29:38.199Z,5.35
2023-05-05T05:32:06.162Z,5.15
2023-05-05T05:34:33.475Z,5.55
2023-05-05T05:37:01.348Z,5.63
2023-05-05T05:39:28.459Z,5.15
2023-05-05T05:41:55.741Z,5.15
2023-05-05T05:44:22.686Z,5.03
2023-05-05T05:46:49.667Z,5.18
2023-05-05T05:49:17.724Z,4.85
2023-05-05T05:51:46.389Z,4.97
2023-05-05T05:54:13.309Z,4.78
2023-05-05T05:56:41.252Z,4.88
2023-05-05T05:59:10.212Z,4.32
2023-05-05T06:01:40.476Z,4.22
2023-05-05T06:04:08.266Z,4.50
2023-05-05T06:06:35.450Z,4.55
2023-05-05T06:09:03.738Z,5.32
2023-05-05T06:11:33.283Z,4.15
2023-05-05T06:14:00.225Z,4.35
2023-05-05T06:16:27.418Z,4.75
2023-05-05T06:18:55.112Z,5.15
2023-05-05T06:21:22.098Z,4.10
2023-05-05T06:23:49.168Z,4.78
2023-05-05T06:26:17.037Z,4.13
2023-05-05T06:28:44.226Z,4.63
2023-05-05T06:31:13.028Z,4.00
2023-05-05T06:33:40.073Z,4.75
2023-05-05T06:36:07.163Z,4.03
2023-05-05T06:38:34.264Z,4.85
2023-05-05T06:41:01.262Z,5.90
2023-05-05T06:43:29.476Z,4.38
2023-05-05T06:45:59.785Z,5.07
2023-05-05T06:48:26.728Z,4.43
2023-05-05T06:50:53.607Z,4.40
2023-05-05T06:53:21.158Z,5.00
2023-05-05T06:55:48.256Z,4.28
2023-05-05T06:58:15.419Z,4.68
2023-05-05T07:00:43.025Z,4.75
2023-05-05T07:03:10.466Z,4.80
2023-05-05T07:05:37.614Z,4.80
2023-05-05T07:08:04.587Z,5.35
2023-05-05T07:10:34.579Z,4.22
2023-05-05T07:13:01.914Z,5.20
2023-05-05T07:15:29.822Z,4.47
2023-05-05T07:17:57.763Z,4.97
2023-05-05T07:20:25.371Z,4.30
2023-05-05T07:22:52.386Z,4.55
2023-05-05T07:25:19.437Z,5.57
2023-05-05T07:27:46.644Z,5.20
2023-05-05T07:30:16.559Z,4.35
2023-05-05T07:32:46.108Z,4.30
2023-05-05T07:35:13.514Z,4.45
2023-05-05T07:37:40.733Z,4.93
2023-05-05T07:40:08.533Z,5.22
2023-05-05T07:42:36.094Z,5.40
2023-05-05T07:45:03.693Z,4.60
2023-05-05T07:47:30.955Z,5.05
2023-05-05T07:49:58.342Z,4.90
2023-05-05T07:52:43.679Z,4.97
2023-05-05T07:55:12.764Z,5.53
2023-05-05T07:57:40.299Z,5.28
2023-05-05T08:00:08.132Z,5.10
2023-05-05T08:02:41.550Z,5.18
2023-05-05T08:05:09.491Z,5.45
2023-05-05T08:07:41.189Z,5.25
2023-05-05T08:10:12.644Z,5.60
2023-05-05T08:12:40.660Z,5.25
2023-05-05T08:15:08.968Z,5.10
2023-05-05T08:17:50.651Z,5.43
2023-05-05T08:20:19.525Z,4.30
2023-05-05T08:22:46.980Z,4.93
2023-05-05T08:25:14.721Z,6.28
2023-05-05T08:27:43.293Z,7.25
2023-05-05T08:30:11.396Z,6.55
2023-05-05T08:32:38.835Z,6.95
2023-05-05T08:35:07.245Z,6.93
2023-05-05T08:37:34.625Z,5.82
2023-05-05T08:40:01.665Z,4.80
2023-05-05T08:42:38.159Z,5.30
2023-05-05T08:45:07.691Z,4.88
2023-05-05T08:47:36.132Z,4.35
2023-05-05T08:50:03.448Z,4.07
2023-05-05T08:52:38.586Z,4.53
2023-05-05T08:55:15.463Z,3.90
2023-05-05T08:57:55.060Z,3.83
2023-05-05T09:00:23.239Z,4.00
2023-05-05T09:02:50.882Z,3.47
2023-05-05T09:05:18.311Z,4.05
2023-05-05T09:07:47.441Z,3.40
2023-05-05T09:10:15.052Z,4.20
2023-05-05T09:12:42.278Z,4.80
2023-05-05T09:15:14.100Z,3.83
2023-05-05T09:17:43.671Z,4.18
2023-05-05T09:20:12.516Z,3.70
2023-05-05T09:22:42.801Z,3.65
2023-05-05T09:25:12.223Z,3.60
2023-05-05T09:27:49.585Z,3.75
2023-05-05T09:30:23.260Z,3.47
2023-05-05T09:32:53.078Z,3.53
2023-05-05T09:35:21.430Z,3.22
2023-05-05T09:37:48.545Z,3.45
2023-05-05T09:40:18.088Z,3.25
2023-05-05T09:42:45.537Z,3.10
2023-05-05T09:45:18.660Z,3.80
2023-05-05T09:47:47.128Z,4.00
2023-05-05T09:50:21.502Z,4.05
2023-05-05T09:52:59.981Z,3.47
2023-05-05T09:55:27.047Z,3.63
2023-05-05T09:57:54.048Z,3.13
2023-05-05T10:00:21.848Z,3.95
2023-05-05T10:02:48.892Z,3.45
2023-05-05T10:05:19.093Z,3.80
2023-05-05T10:07:47.411Z,3.80
2023-05-05T10:10:16.961Z,3.70
2023-05-05T10:12:47.361Z,3.95
2023-05-05T10:15:16.417Z,4.18
2023-05-05T10:20:21.279Z,3.78
2023-05-05T10:22:53.001Z,3.72
2023-05-05T10:25:39.312Z,3.92
2023-05-05T10:28:09.902Z,4.00
2023-05-05T10:30:43.478Z,4.22
2023-05-05T10:33:31.611Z,3.95
2023-05-05T10:36:02.310Z,3.92
2023-05-05T10:38:33.763Z,4.32
2023-05-05T10:41:04.362Z,4.13
2023-05-05T10:43:32.176Z,4.68
2023-05-05T10:45:59.854Z,3.90
2023-05-05T10:48:41.966Z,3.35
2023-05-05T10:51:39.524Z,3.60
2023-05-05T10:54:17.139Z,3.88
2023-05-05T10:56:44.160Z,3.10
2023-05-05T10:59:36.226Z,3.85
2023-05-05T11:02:23.880Z,2.90
2023-05-05T11:05:23.534Z,2.90
2023-05-05T11:07:51.778Z,2.72
2023-05-05T11:10:21.100Z,2.47
2023-05-05T11:13:02.554Z,3.53
2023-05-05T11:15:29.818Z,3.10
2023-05-05T11:18:07.905Z,2.15
2023-05-05T11:20:35.604Z,2.65
2023-05-05T11:23:02.537Z,2.75
2023-05-05T11:25:39.109Z,2.33
2023-05-05T11:28:12.943Z,2.50
2023-05-05T11:30:55.289Z,2.80
2023-05-05T11:33:31.733Z,2.70
2023-05-05T11:36:05.961Z,2.13
2023-05-05T11:38:36.708Z,2.60
2023-05-05T11:41:13.582Z,2.40
2023-05-05T11:43:41.900Z,2.70
2023-05-05T11:46:15.397Z,2.53
2023-05-05T11:48:48.568Z,2.65
2023-05-05T11:51:17.085Z,2.30
2023-05-05T11:53:48.822Z,3.10
2023-05-05T11:56:21.863Z,2.60
2023-05-05T11:59:04.875Z,2.90
2023-05-05T12:01:31.887Z,3.20
2023-05-05T12:03:59.606Z,3.50
2023-05-05T12:06:27.706Z,2.55
2023-05-05T12:08:55.011Z,2.78
2023-05-05T12:11:21.940Z,2.47
2023-05-05T12:13:48.997Z,3.08
2023-05-05T12:16:16.588Z,3.22
2023-05-05T12:18:43.659Z,2.65
2023-05-05T12:21:21.414Z,2.60
2023-05-05T12:23:48.541Z,2.53
2023-05-05T12:26:26.186Z,2.33
2023-05-05T12:28:53.399Z,2.30
2023-05-05T12:31:20.576Z,3.70
2023-05-05T12:33:48.831Z,3.30
2023-05-05T12:36:16.545Z,2.30
2023-05-05T12:38:43.546Z,2.92
2023-05-05T12:41:10.565Z,2.63
2023-05-05T12:43:38.819Z,3.60
2023-05-05T12:46:11.195Z,1.63
2023-05-05T12:48:40.518Z,2.10
2023-05-05T12:51:18.497Z,2.00
2023-05-05T12:53:49.427Z,2.22
2023-05-05T12:56:39.033Z,2.60
2023-05-05T12:59:08.155Z,1.88
2023-05-05T13:01:52.612Z,3.53
2023-05-05T13:04:21.223Z,2.72
2023-05-05T13:06:49.354Z,1.67
2023-05-05T13:09:34.011Z,1.75
2023-05-05T13:12:03.204Z,2.08
2023-05-05T13:14:31.649Z,1.92
2023-05-05T13:16:58.884Z,2.10
2023-05-05T13:19:25.880Z,1.95
2023-05-05T13:21:53.665Z,2.13
2023-05-05T13:24:28.776Z,2.17
2023-05-05T13:29:33.638Z,2.20
2023-05-05T13:32:00.777Z,2.50
2023-05-05T13:34:28.327Z,2.13
2023-05-05T13:36:55.355Z,1.75
2023-05-05T13:39:22.536Z,2.47
2023-05-05T13:41:49.482Z,1.95
2023-05-05T13:44:16.597Z,2.10
2023-05-05T13:46:43.928Z,2.25
2023-05-05T13:49:11.277Z,2.85
2023-05-05T13:51:39.074Z,2.65
2023-05-05T13:54:06.971Z,2.47
2023-05-05T13:56:34.696Z,2.00
2023-05-05T13:59:02.566Z,2.22
2023-05-05T14:01:30.342Z,2.30
2023-05-05T14:03:58.152Z,2.65
2023-05-05T14:06:26.041Z,1.80
2023-05-05T14:08:53.070Z,2.33
2023-05-05T14:11:20.798Z,1.85
2023-05-05T14:13:48.260Z,2.22
2023-05-05T14:16:15.652Z,1.88
2023-05-05T14:18:42.684Z,1.60
2023-05-05T14:21:10.074Z,1.88
2023-05-05T14:23:37.093Z,1.92
2023-05-05T14:26:04.414Z,1.80
2023-05-05T14:28:31.360Z,1.42
2023-05-05T14:30:58.369Z,1.73
2023-05-05T14:33:25.753Z,1.90
2023-05-05T14:35:52.733Z,2.47
2023-05-05T14:38:19.737Z,2.10
2023-05-05T14:40:46.970Z,1.30
2023-05-05T14:43:14.151Z,1.95
2023-05-05T14:45:41.534Z,2.45
2023-05-05T14:48:08.848Z,2.38
2023-05-05T14:50:35.932Z,1.77
2023-05-05T14:53:03.640Z,2.00
2023-05-05T14:55:31.217Z,2.13
2023-05-05T14:57:58.128Z,2.30
2023-05-05T15:00:26.920Z,2.78
2023-05-05T15:02:56.317Z,1.58
2023-05-05T15:05:26.162Z,1.13
2023-05-05T15:07:53.316Z,1.58
2023-05-05T15:10:21.859Z,1.88
2023-05-05T15:12:52.387Z,1.30
2023-05-05T15:15:19.910Z,2.15
2023-05-05T15:17:47.188Z,2.15
2023-05-05T15:20:16.967Z,1.50
2023-05-05T15:22:44.123Z,1.42
2023-05-05T15:25:14.925Z,1.45
2023-05-05T15:27:42.461Z,1.67
2023-05-05T15:30:09.937Z,1.70
2023-05-05T15:32:37.031Z,1.67
2023-05-05T15:35:04.672Z,1.90
2023-05-05T15:37:31.874Z,2.10
2023-05-05T15:39:59.044Z,1.60
2023-05-05T15:42:26.539Z,2.28
2023-05-05T15:44:53.637Z,1.50
2023-05-05T15:47:20.584Z,1.38
2023-05-05T15:49:47.492Z,1.13
2023-05-05T15:52:14.536Z,1.52
2023-05-05T15:54:44.495Z,1.60
2023-05-05T15:57:24.545Z,1.50
2023-05-05T15:59:54.973Z,1.48
2023-05-05T16:02:22.360Z,1.48
2023-05-05T16:04:49.315Z,1.83
2023-05-05T16:07:17.226Z,1.10
2023-05-05T16:09:44.570Z,1.70
2023-05-05T16:12:11.658Z,1.50
2023-05-05T16:14:38.591Z,1.33
2023-05-05T16:17:05.600Z,1.10
2023-05-05T16:19:32.629Z,1.33
2023-05-05T16:21:59.547Z,1.80
2023-05-05T16:24:26.583Z,1.55
2023-05-05T16:26:53.530Z,1.98
2023-05-05T16:29:20.450Z,1.77
2023-05-05T16:31:47.655Z,1.60
2023-05-05T16:34:15.571Z,1.80
2023-05-05T16:36:44.335Z,1.85
2023-05-05T16:39:12.089Z,1.80
2023-05-05T16:41:39.312Z,1.50
2023-05-05T16:44:06.785Z,1.73
2023-05-05T16:46:37.417Z,1.35
2023-05-05T16:49:04.622Z,1.10
2023-05-05T16:51:31.663Z,1.40
2023-05-05T16:53:58.612Z,1.50
2023-05-05T16:56:25.850Z,1.42
2023-05-05T16:58:52.882Z,1.60
2023-05-05T17:01:19.996Z,2.10
2023-05-05T17:03:46.968Z,1.83
2023-05-05T17:06:13.890Z,2.40
2023-05-05T17:08:40.902Z,2.00
2023-05-05T17:11:10.882Z,1.70
2023-05-05T17:13:38.569Z,1.40
2023-05-05T17:16:05.788Z,2.10
2023-05-05T17:18:32.816Z,2.15
2023-05-05T17:20:59.798Z,1.88
2023-05-05T17:23:27.248Z,1.63
2023-05-05T17:25:54.290Z,2.40
2023-05-05T17:28:21.279Z,2.03
2023-05-05T17:30:48.329Z,2.42
2023-05-05T17:33:18.452Z,1.70
2023-05-05T17:35:45.640Z,1.90
2023-05-05T17:38:12.684Z,2.40
2023-05-05T17:40:39.726Z,1.90
2023-05-05T17:43:07.561Z,1.73
2023-05-05T17:45:34.544Z,1.70
2023-05-05T17:48:01.643Z,2.00
2023-05-05T17:50:28.736Z,2.10
2023-05-05T17:52:55.722Z,1.95
2023-05-05T17:55:22.607Z,1.90
2023-05-05T17:57:49.569Z,2.03
2023-05-05T18:00:16.915Z,2.10
2023-05-05T18:02:44.523Z,2.00
2023-05-05T18:05:11.804Z,2.30
2023-05-05T18:07:39.061Z,2.50
2023-05-05T18:10:10.839Z,1.80
2023-05-05T18:12:38.114Z,1.92
2023-05-05T18:15:05.787Z,1.88
2023-05-05T18:17:32.773Z,2.38
2023-05-05T18:19:59.860Z,1.70
2023-05-05T18:22:26.801Z,1.77
2023-05-05T18:24:59.083Z,2.85
2023-05-05T18:27:28.752Z,1.52
2023-05-05T18:29:55.765Z,2.35
2023-05-05T18:32:23.923Z,2.28
2023-05-05T18:34:50.990Z,2.17
2023-05-05T18:37:17.938Z,2.33
2023-05-05T18:39:45.314Z,1.88
2023-05-05T18:42:13.287Z,1.73
2023-05-05T18:44:40.348Z,1.80
2023-05-05T18:47:08.507Z,2.25
2023-05-05T18:49:35.684Z,2.42
2023-05-05T18:52:02.597Z,1.90
2023-05-05T18:54:29.573Z,2.40
2023-05-05T18:56:56.536Z,1.90
2023-05-05T18:59:24.405Z,2.30
2023-05-05T19:01:51.475Z,2.30
2023-05-05T19:04:30.068Z,1.98
2023-05-05T19:06:57.900Z,2.25
2023-05-05T19:09:25.060Z,1.92
2023-05-05T19:11:52.706Z,1.70
2023-05-05T19:14:19.861Z,2.10
2023-05-05T19:16:47.564Z,2.60
2023-05-05T19:19:14.755Z,2.20
2023-05-05T19:21:41.761Z,2.65
2023-05-05T19:24:09.749Z,2.10
2023-05-05T19:26:36.903Z,2.20
2023-05-05T19:29:04.061Z,2.40
2023-05-05T19:31:31.545Z,2.47
2023-05-05T19:34:01.858Z,2.20
2023-05-05T19:36:31.834Z,2.42
2023-05-05T19:39:03.174Z,2.90
2023-05-05T19:41:31.492Z,2.25
2023-05-05T19:43:58.655Z,4.13
2023-05-05T19:46:26.839Z,2.90
2023-05-05T19:48:54.308Z,3.45
2023-05-05T19:51:21.418Z,2.97
2023-05-05T19:53:48.547Z,3.35
2023-05-05T19:56:17.226Z,2.67
2023-05-05T19:58:54.292Z,2.75
2023-05-05T20:01:21.417Z,3.92
2023-05-05T20:03:48.632Z,2.17
2023-05-05T20:06:15.975Z,3.00
2023-05-05T20:08:43.537Z,2.90
2023-05-05T20:11:10.714Z,3.13
2023-05-05T20:13:39.229Z,3.22
2023-05-05T20:16:07.417Z,3.00
2023-05-05T20:18:34.423Z,3.33
2023-05-05T20:21:02.490Z,3.10
2023-05-05T20:23:29.675Z,2.70
2023-05-05T20:25:56.894Z,2.20
2023-05-05T20:28:24.030Z,2.72
2023-05-05T20:30:51.112Z,2.75
2023-05-05T20:33:18.169Z,2.78
2023-05-05T20:35:45.100Z,2.70
2023-05-05T20:40:54.833Z,2.50
2023-05-05T20:43:21.842Z,2.40
2023-05-05T20:45:48.772Z,2.63
2023-05-05T20:48:15.775Z,2.75
2023-05-05T20:50:43.282Z,1.90
2023-05-05T20:53:13.867Z,2.35
2023-05-05T20:55:41.199Z,2.67
2023-05-05T20:58:08.217Z,3.08
2023-05-05T21:00:35.529Z,2.15
2023-05-05T21:03:03.024Z,1.80
2023-05-05T21:05:31.672Z,2.60
2023-05-05T21:08:00.838Z,2.40
2023-05-05T21:10:33.180Z,2.70
2023-05-05T21:13:02.110Z,2.83
2023-05-05T21:15:29.780Z,3.17
2023-05-05T21:17:57.326Z,3.63
2023-05-05T21:20:24.598Z,4.20
2023-05-05T21:22:51.629Z,3.20
2023-05-05T21:25:20.828Z,2.80
2023-05-05T21:27:48.667Z,3.30
2023-05-05T21:30:16.117Z,4.03
2023-05-05T21:32:43.540Z,3.03
2023-05-05T21:35:10.887Z,3.60
2023-05-05T21:37:39.227Z,3.50
2023-05-05T21:40:10.858Z,3.53
2023-05-05T21:42:38.122Z,3.38
2023-05-05T21:45:05.518Z,3.00
2023-05-05T21:47:32.642Z,3.70
2023-05-05T21:49:59.639Z,3.53
2023-05-05T21:52:26.840Z,3.70
2023-05-05T21:54:53.763Z,4.13
2023-05-05T21:57:20.771Z,5.00
2023-05-05T21:59:47.754Z,4.47
2023-05-05T22:02:14.640Z,4.00
2023-05-05T22:04:41.537Z,3.70
2023-05-05T22:07:08.427Z,4.90
2023-05-05T22:09:35.352Z,5.18
2023-05-05T22:12:02.694Z,4.43
2023-05-05T22:14:29.716Z,4.70
2023-05-05T22:16:56.632Z,4.75
2023-05-05T22:19:23.606Z,5.18
2023-05-05T22:21:50.500Z,5.18
2023-05-05T22:24:17.424Z,3.70
2023-05-05T22:26:44.425Z,4.50
2023-05-05T22:29:11.531Z,5.40
2023-05-05T22:31:38.866Z,5.15
2023-05-05T22:34:05.871Z,6.68
2023-05-05T22:36:32.785Z,6.93
2023-05-05T22:38:59.730Z,5.82
2023-05-05T22:41:26.871Z,6.00
2023-05-05T22:43:56.743Z,5.80
2023-05-05T22:46:24.741Z,6.18
2023-05-05T22:48:52.903Z,6.50
2023-05-05T22:51:19.836Z,4.60
2023-05-05T22:53:46.729Z,6.75
2023-05-05T22:56:13.904Z,6.20
2023-05-05T22:58:41.116Z,6.55
2023-05-05T23:01:08.306Z,8.13
2023-05-05T23:03:35.348Z,8.15
2023-05-05T23:06:02.380Z,7.75
2023-05-05T23:08:29.317Z,7.50
2023-05-05T23:10:56.334Z,6.60
2023-05-05T23:13:23.470Z,5.78
2023-05-05T23:15:50.451Z,5.75
2023-05-05T23:18:17.396Z,5.90
2023-05-05T23:20:44.349Z,6.32
2023-05-05T23:23:11.288Z,6.32
2023-05-05T23:25:38.175Z,6.85
2023-05-05T23:28:05.240Z,7.32
2023-05-05T23:30:32.325Z,7.97
2023-05-05T23:33:01.134Z,8.10
2023-05-05T23:35:28.197Z,8.07
2023-05-05T23:37:55.292Z,8.18
2023-05-05T23:40:22.422Z,9.13
2023-05-05T23:42:49.555Z,8.30
2023-05-05T23:45:19.201Z,7.88
2023-05-05T23:47:46.443Z,9.20
2023-05-05T23:50:13.365Z,10.45
2023-05-05T23:52:41.823Z,10.40
2023-05-05T23:55:10.355Z,10.65
2023-05-05T23:57:37.800Z,10.60
